sensor_id;sensor_type;location;lat;lon;timestamp;pressure;altitude;pressure_sealevel;temperature;humidity
9277;BME280;4676;42.678;23.244;2023-02-23T00:00:23;93926.72;;;6.43;100.00
9277;BME280;4676;42.678;23.244;2023-02-23T00:02:53;93924.78;;;6.51;100.00
9277;BME280;4676;42.678;23.244;2023-02-23T00:05:24;93925.91;;;6.41;100.00
9277;BME280;4676;42.678;23.244;2023-02-23T00:07:51;93924.03;;;6.47;100.00
9277;BME280;4676;42.678;23.244;2023-02-23T00:10:19;93916.00;;;6.36;100.00
9277;BME280;4676;42.678;23.244;2023-02-23T00:12:49;93928.03;;;6.54;100.00
9277;BME280;4676;42.678;23.244;2023-02-23T00:15:15;93926.91;;;6.35;100.00
9277;BME280;4676;42.678;23.244;2023-02-23T00:17:42;93919.56;;;6.28;100.00
9277;BME280;4676;42.678;23.244;2023-02-23T00:20:12;93927.97;;;6.27;100.00
9277;BME280;4676;42.678;23.244;2023-02-23T00:22:42;93926.53;;;6.18;100.00
9277;BME280;4676;42.678;23.244;2023-02-23T00:25:09;93934.09;;;6.17;100.00
9277;BME280;4676;42.678;23.244;2023-02-23T00:27:37;93928.22;;;6.18;100.00
9277;BME280;4676;42.678;23.244;2023-02-23T00:30:10;93933.34;;;6.13;100.00
9277;BME280;4676;42.678;23.244;2023-02-23T00:32:36;93933.53;;;6.06;100.00
9277;BME280;4676;42.678;23.244;2023-02-23T00:35:04;93936.22;;;5.99;100.00
9277;BME280;4676;42.678;23.244;2023-02-23T00:37:35;93932.06;;;5.98;100.00
9277;BME280;4676;42.678;23.244;2023-02-23T00:40:05;93935.56;;;5.93;100.00
9277;BME280;4676;42.678;23.244;2023-02-23T00:42:37;93935.59;;;5.91;100.00
9277;BME280;4676;42.678;23.244;2023-02-23T00:45:05;93931.34;;;5.93;100.00
9277;BME280;4676;42.678;23.244;2023-02-23T00:47:33;93939.75;;;5.94;100.00
9277;BME280;4676;42.678;23.244;2023-02-23T00:50:01;93931.28;;;5.96;100.00
9277;BME280;4676;42.678;23.244;2023-02-23T00:52:29;93934.19;;;6.14;100.00
9277;BME280;4676;42.678;23.244;2023-02-23T00:54:56;93934.44;;;6.05;100.00
9277;BME280;4676;42.678;23.244;2023-02-23T00:57:24;93933.88;;;5.93;100.00
9277;BME280;4676;42.678;23.244;2023-02-23T00:59:50;93935.31;;;6.02;100.00
9277;BME280;4676;42.678;23.244;2023-02-23T01:02:17;93933.72;;;5.99;100.00
9277;BME280;4676;42.678;23.244;2023-02-23T01:04:44;93936.50;;;5.89;100.00
9277;BME280;4676;42.678;23.244;2023-02-23T01:07:10;93935.78;;;5.82;100.00
9277;BME280;4676;42.678;23.244;2023-02-23T01:09:37;93935.91;;;5.78;100.00
9277;BME280;4676;42.678;23.244;2023-02-23T01:12:04;93934.38;;;5.72;100.00
9277;BME280;4676;42.678;23.244;2023-02-23T01:14:33;93938.59;;;5.70;100.00
9277;BME280;4676;42.678;23.244;2023-02-23T01:17:01;93935.41;;;5.64;100.00
9277;BME280;4676;42.678;23.244;2023-02-23T01:19:28;93937.03;;;5.66;100.00
9277;BME280;4676;42.678;23.244;2023-02-23T01:21:58;93938.03;;;5.59;100.00
9277;BME280;4676;42.678;23.244;2023-02-23T01:24:26;93935.56;;;5.56;100.00
9277;BME280;4676;42.678;23.244;2023-02-23T01:26:53;93933.97;;;5.53;100.00
9277;BME280;4676;42.678;23.244;2023-02-23T01:29:20;93928.25;;;5.48;100.00
9277;BME280;4676;42.678;23.244;2023-02-23T01:31:48;93925.66;;;5.51;100.00
9277;BME280;4676;42.678;23.244;2023-02-23T01:34:16;93928.09;;;5.54;100.00
9277;BME280;4676;42.678;23.244;2023-02-23T01:36:44;93926.59;;;5.47;100.00
9277;BME280;4676;42.678;23.244;2023-02-23T01:39:13;93931.38;;;5.57;100.00
9277;BME280;4676;42.678;23.244;2023-02-23T01:41:40;93930.59;;;5.54;100.00
9277;BME280;4676;42.678;23.244;2023-02-23T01:47:14;93921.81;;;5.35;100.00
9277;BME280;4676;42.678;23.244;2023-02-23T01:49:45;93924.50;;;5.29;100.00
9277;BME280;4676;42.678;23.244;2023-02-23T01:52:14;93927.00;;;5.29;100.00
9277;BME280;4676;42.678;23.244;2023-02-23T01:54:44;93927.09;;;5.25;100.00
9277;BME280;4676;42.678;23.244;2023-02-23T01:57:15;93917.28;;;5.14;100.00
9277;BME280;4676;42.678;23.244;2023-02-23T01:59:44;93923.91;;;5.18;100.00
9277;BME280;4676;42.678;23.244;2023-02-23T02:02:11;93922.31;;;5.14;100.00
9277;BME280;4676;42.678;23.244;2023-02-23T02:04:42;93924.06;;;5.11;100.00
9277;BME280;4676;42.678;23.244;2023-02-23T02:07:09;93919.09;;;5.09;100.00
9277;BME280;4676;42.678;23.244;2023-02-23T02:09:39;93919.09;;;5.09;100.00
9277;BME280;4676;42.678;23.244;2023-02-23T02:12:25;93913.22;;;5.10;100.00
9277;BME280;4676;42.678;23.244;2023-02-23T02:14:52;93917.53;;;5.03;100.00
9277;BME280;4676;42.678;23.244;2023-02-23T02:17:30;93913.25;;;5.09;100.00
9277;BME280;4676;42.678;23.244;2023-02-23T02:20:27;93916.72;;;5.03;100.00
9277;BME280;4676;42.678;23.244;2023-02-23T02:23:13;93895.13;;;4.94;100.00
9277;BME280;4676;42.678;23.244;2023-02-23T02:25:49;93917.41;;;5.10;100.00
9277;BME280;4676;42.678;23.244;2023-02-23T02:34:49;93914.91;;;5.10;100.00
9277;BME280;4676;42.678;23.244;2023-02-23T02:37:44;93914.91;;;5.08;100.00
9277;BME280;4676;42.678;23.244;2023-02-23T02:40:20;93913.09;;;5.15;100.00
9277;BME280;4676;42.678;23.244;2023-02-23T02:43:10;93914.91;;;5.08;100.00
9277;BME280;4676;42.678;23.244;2023-02-23T02:45:44;93913.97;;;5.14;100.00
9277;BME280;4676;42.678;23.244;2023-02-23T02:48:22;93910.66;;;5.12;100.00
9277;BME280;4676;42.678;23.244;2023-02-23T02:50:57;93885.94;;;4.93;100.00
9277;BME280;4676;42.678;23.244;2023-02-23T02:53:35;93906.63;;;5.04;100.00
9277;BME280;4676;42.678;23.244;2023-02-23T02:56:05;93899.41;;;4.89;100.00
9277;BME280;4676;42.678;23.244;2023-02-23T02:58:32;93912.81;;;4.90;100.00
9277;BME280;4676;42.678;23.244;2023-02-23T03:01:05;93897.09;;;4.82;100.00
9277;BME280;4676;42.678;23.244;2023-02-23T03:03:50;93912.84;;;4.88;100.00
9277;BME280;4676;42.678;23.244;2023-02-23T03:06:41;93908.78;;;4.83;100.00
9277;BME280;4676;42.678;23.244;2023-02-23T03:09:35;93916.41;;;4.78;100.00
9277;BME280;4676;42.678;23.244;2023-02-23T03:12:28;93914.78;;;4.76;100.00
9277;BME280;4676;42.678;23.244;2023-02-23T03:15:35;93910.72;;;4.70;100.00
9277;BME280;4676;42.678;23.244;2023-02-23T03:18:36;93918.25;;;4.70;100.00
9277;BME280;4676;42.678;23.244;2023-02-23T03:21:29;93919.94;;;4.70;100.00
9277;BME280;4676;42.678;23.244;2023-02-23T03:24:21;93920.81;;;4.67;100.00
9277;BME280;4676;42.678;23.244;2023-02-23T03:27:17;93908.38;;;4.61;100.00
9277;BME280;4676;42.678;23.244;2023-02-23T03:30:10;93920.91;;;4.63;100.00
9277;BME280;4676;42.678;23.244;2023-02-23T03:33:04;93928.56;;;4.57;100.00
9277;BME280;4676;42.678;23.244;2023-02-23T03:35:56;93931.94;;;4.54;100.00
9277;BME280;4676;42.678;23.244;2023-02-23T03:38:46;93929.56;;;4.49;100.00
9277;BME280;4676;42.678;23.244;2023-02-23T03:41:33;93936.31;;;4.46;100.00
9277;BME280;4676;42.678;23.244;2023-02-23T03:44:23;93931.34;;;4.43;100.00
9277;BME280;4676;42.678;23.244;2023-02-23T03:47:11;93940.50;;;4.44;100.00
9277;BME280;4676;42.678;23.244;2023-02-23T03:50:00;93943.16;;;4.36;100.00
9277;BME280;4676;42.678;23.244;2023-02-23T03:52:50;93942.50;;;4.28;100.00
9277;BME280;4676;42.678;23.244;2023-02-23T03:55:39;93950.69;;;4.38;100.00
9277;BME280;4676;42.678;23.244;2023-02-23T03:58:29;93946.50;;;4.38;100.00
9277;BME280;4676;42.678;23.244;2023-02-23T04:01:17;93946.13;;;4.57;100.00
9277;BME280;4676;42.678;23.244;2023-02-23T04:04:04;93948.44;;;4.67;100.00
9277;BME280;4676;42.678;23.244;2023-02-23T04:06:49;93947.78;;;4.58;100.00
9277;BME280;4676;42.678;23.244;2023-02-23T04:09:35;93949.38;;;4.62;100.00
9277;BME280;4676;42.678;23.244;2023-02-23T04:12:22;93949.56;;;4.51;100.00
9277;BME280;4676;42.678;23.244;2023-02-23T04:15:13;93943.06;;;4.42;100.00
9277;BME280;4676;42.678;23.244;2023-02-23T04:17:41;93948.94;;;4.40;100.00
9277;BME280;4676;42.678;23.244;2023-02-23T04:20:10;93942.19;;;4.45;100.00
9277;BME280;4676;42.678;23.244;2023-02-23T04:22:37;93943.00;;;4.45;100.00
9277;BME280;4676;42.678;23.244;2023-02-23T04:25:05;93938.88;;;4.43;100.00
9277;BME280;4676;42.678;23.244;2023-02-23T04:27:33;93933.97;;;4.37;100.00
9277;BME280;4676;42.678;23.244;2023-02-23T04:30:00;93934.78;;;4.39;100.00
9277;BME280;4676;42.678;23.244;2023-02-23T04:32:28;93943.03;;;4.44;100.00
9277;BME280;4676;42.678;23.244;2023-02-23T04:34:56;93942.16;;;4.46;100.00
9277;BME280;4676;42.678;23.244;2023-02-23T04:37:23;93936.50;;;4.35;100.00
9277;BME280;4676;42.678;23.244;2023-02-23T04:39:50;93942.44;;;4.31;100.00
9277;BME280;4676;42.678;23.244;2023-02-23T04:42:17;93943.38;;;4.26;100.00
9277;BME280;4676;42.678;23.244;2023-02-23T04:44:44;93943.56;;;4.15;100.00
9277;BME280;4676;42.678;23.244;2023-02-23T04:47:11;93938.66;;;4.11;100.00
9277;BME280;4676;42.678;23.244;2023-02-23T04:49:37;93947.78;;;4.15;100.00
9277;BME280;4676;42.678;23.244;2023-02-23T04:52:06;93943.63;;;4.12;100.00
9277;BME280;4676;42.678;23.244;2023-02-23T04:54:32;93947.03;;;4.10;100.00
9277;BME280;4676;42.678;23.244;2023-02-23T04:56:59;93946.31;;;4.03;100.00
9277;BME280;4676;42.678;23.244;2023-02-23T04:59:26;93946.31;;;4.03;100.00
9277;BME280;4676;42.678;23.244;2023-02-23T05:01:53;93941.28;;;4.05;100.00
9277;BME280;4676;42.678;23.244;2023-02-23T05:04:20;93913.00;;;3.96;100.00
9277;BME280;4676;42.678;23.244;2023-02-23T05:06:46;93942.59;;;4.22;100.00
9277;BME280;4676;42.678;23.244;2023-02-23T05:09:15;93937.81;;;4.12;100.00
9277;BME280;4676;42.678;23.244;2023-02-23T05:11:42;93939.56;;;4.05;100.00
9277;BME280;4676;42.678;23.244;2023-02-23T05:14:09;93937.94;;;4.04;100.00
9277;BME280;4676;42.678;23.244;2023-02-23T05:16:36;93941.16;;;4.11;100.00
9277;BME280;4676;42.678;23.244;2023-02-23T05:19:03;93941.22;;;4.08;100.00
9277;BME280;4676;42.678;23.244;2023-02-23T05:21:30;93946.28;;;4.05;100.00
9277;BME280;4676;42.678;23.244;2023-02-23T05:23:57;93949.66;;;4.02;100.00
9277;BME280;4676;42.678;23.244;2023-02-23T05:26:25;93954.72;;;4.00;100.00
9277;BME280;4676;42.678;23.244;2023-02-23T05:28:52;93954.72;;;4.00;100.00
9277;BME280;4676;42.678;23.244;2023-02-23T05:31:21;93954.72;;;4.00;100.00
9277;BME280;4676;42.678;23.244;2023-02-23T05:33:48;93962.19;;;4.03;100.00
9277;BME280;4676;42.678;23.244;2023-02-23T05:36:16;93960.50;;;4.04;100.00
9277;BME280;4676;42.678;23.244;2023-02-23T05:38:44;93962.19;;;4.03;100.00
9277;BME280;4676;42.678;23.244;2023-02-23T05:41:13;93953.94;;;3.97;100.00
9277;BME280;4676;42.678;23.244;2023-02-23T05:43:42;93964.75;;;4.00;100.00
9277;BME280;4676;42.678;23.244;2023-02-23T05:46:09;93978.94;;;4.00;100.00
9277;BME280;4676;42.678;23.244;2023-02-23T05:48:37;93961.63;;;3.86;100.00
9277;BME280;4676;42.678;23.244;2023-02-23T05:51:05;93979.75;;;4.02;100.00
9277;BME280;4676;42.678;23.244;2023-02-23T05:53:32;93987.97;;;4.10;100.00
9277;BME280;4676;42.678;23.244;2023-02-23T05:56:00;93973.72;;;4.12;100.00
9277;BME280;4676;42.678;23.244;2023-02-23T05:58:27;93990.34;;;4.18;100.00
9277;BME280;4676;42.678;23.244;2023-02-23T06:00:56;93997.75;;;4.24;100.00
9277;BME280;4676;42.678;23.244;2023-02-23T06:03:23;93989.28;;;4.31;100.00
9277;BME280;4676;42.678;23.244;2023-02-23T06:05:50;94002.38;;;4.46;100.00
9277;BME280;4676;42.678;23.244;2023-02-23T06:08:17;93994.44;;;4.68;100.00
9277;BME280;4676;42.678;23.244;2023-02-23T06:10:44;94002.97;;;5.00;100.00
9277;BME280;4676;42.678;23.244;2023-02-23T06:13:13;93996.19;;;5.06;100.00
9277;BME280;4676;42.678;23.244;2023-02-23T06:15:40;94001.69;;;5.21;100.00
9277;BME280;4676;42.678;23.244;2023-02-23T06:18:08;94007.25;;;5.35;100.00
9277;BME280;4676;42.678;23.244;2023-02-23T06:20:35;94005.25;;;5.51;100.00
9277;BME280;4676;42.678;23.244;2023-02-23T06:23:02;94006.78;;;5.57;100.00
9277;BME280;4676;42.678;23.244;2023-02-23T06:25:29;94011.63;;;5.64;100.00
9277;BME280;4676;42.678;23.244;2023-02-23T06:27:56;94015.09;;;5.60;100.00
9277;BME280;4676;42.678;23.244;2023-02-23T06:30:23;94015.59;;;5.74;100.00
9277;BME280;4676;42.678;23.244;2023-02-23T06:32:49;94018.72;;;5.87;100.00
9277;BME280;4676;42.678;23.244;2023-02-23T06:35:18;94019.47;;;5.89;100.00
9277;BME280;4676;42.678;23.244;2023-02-23T06:37:44;94017.09;;;5.81;100.00
9277;BME280;4676;42.678;23.244;2023-02-23T06:40:11;94028.16;;;5.74;100.00
9277;BME280;4676;42.678;23.244;2023-02-23T06:42:38;94021.56;;;5.70;100.00
9277;BME280;4676;42.678;23.244;2023-02-23T06:45:05;94024.50;;;5.89;100.00
9277;BME280;4676;42.678;23.244;2023-02-23T06:47:32;94027.22;;;5.80;100.00
9277;BME280;4676;42.678;23.244;2023-02-23T06:49:59;94028.91;;;5.79;100.00
9277;BME280;4676;42.678;23.244;2023-02-23T06:52:28;94031.09;;;5.94;100.00
9277;BME280;4676;42.678;23.244;2023-02-23T06:54:54;94021.72;;;6.01;100.00
9277;BME280;4676;42.678;23.244;2023-02-23T06:57:21;94025.69;;;6.10;100.00
9277;BME280;4676;42.678;23.244;2023-02-23T06:59:48;94021.94;;;6.26;100.00
9277;BME280;4676;42.678;23.244;2023-02-23T07:02:14;94029.25;;;6.35;100.00
9277;BME280;4676;42.678;23.244;2023-02-23T07:04:41;94026.84;;;6.30;100.00
9277;BME280;4676;42.678;23.244;2023-02-23T07:07:08;94025.09;;;6.34;100.00
9277;BME280;4676;42.678;23.244;2023-02-23T07:09:38;94024.03;;;6.42;100.00
9277;BME280;4676;42.678;23.244;2023-02-23T07:12:05;94024.97;;;6.38;100.00
9277;BME280;4676;42.678;23.244;2023-02-23T07:14:32;94023.22;;;6.42;100.00
9277;BME280;4676;42.678;23.244;2023-02-23T07:16:58;94025.34;;;6.57;100.00
9277;BME280;4676;42.678;23.244;2023-02-23T07:19:25;94022.00;;;6.57;100.00
9277;BME280;4676;42.678;23.244;2023-02-23T07:21:53;94024.16;;;6.70;100.00
9277;BME280;4676;42.678;23.244;2023-02-23T07:24:19;94033.81;;;6.85;100.00
9277;BME280;4676;42.678;23.244;2023-02-23T07:26:48;94021.88;;;6.92;100.00
9277;BME280;4676;42.678;23.244;2023-02-23T07:29:16;94022.63;;;6.95;100.00
9277;BME280;4676;42.678;23.244;2023-02-23T07:31:43;94017.47;;;7.00;100.00
9277;BME280;4676;42.678;23.244;2023-02-23T07:34:10;94017.13;;;7.12;100.00
9277;BME280;4676;42.678;23.244;2023-02-23T07:36:37;94012.81;;;7.16;100.00
9277;BME280;4676;42.678;23.244;2023-02-23T07:39:04;94018.88;;;7.10;100.00
9277;BME280;4676;42.678;23.244;2023-02-23T07:41:30;94015.41;;;7.14;100.00
9277;BME280;4676;42.678;23.244;2023-02-23T07:43:59;94011.59;;;7.29;100.00
9277;BME280;4676;42.678;23.244;2023-02-23T07:46:25;94019.13;;;7.30;100.00
9277;BME280;4676;42.678;23.244;2023-02-23T07:48:52;94014.72;;;7.37;100.00
9277;BME280;4676;42.678;23.244;2023-02-23T07:51:19;94011.13;;;7.45;100.00
9277;BME280;4676;42.678;23.244;2023-02-23T07:53:46;94011.84;;;7.49;100.00
9277;BME280;4676;42.678;23.244;2023-02-23T07:56:13;94012.34;;;7.60;100.00
9277;BME280;4676;42.678;23.244;2023-02-23T07:58:41;94014.13;;;7.57;100.00
9277;BME280;4676;42.678;23.244;2023-02-23T08:01:11;94011.44;;;7.63;100.00
9277;BME280;4676;42.678;23.244;2023-02-23T08:03:38;94015.66;;;7.62;99.27
9277;BME280;4676;42.678;23.244;2023-02-23T08:06:05;94014.59;;;7.69;100.00
9277;BME280;4676;42.678;23.244;2023-02-23T08:08:32;94013.41;;;7.81;98.79
9277;BME280;4676;42.678;23.244;2023-02-23T08:11:00;94008.75;;;7.95;98.59
9277;BME280;4676;42.678;23.244;2023-02-23T08:13:27;94013.31;;;8.10;96.26
9277;BME280;4676;42.678;23.244;2023-02-23T08:15:55;94014.13;;;8.11;94.57
9277;BME280;4676;42.678;23.244;2023-02-23T08:18:23;94013.69;;;8.24;93.66
9277;BME280;4676;42.678;23.244;2023-02-23T08:20:56;94009.16;;;8.09;92.15
9277;BME280;4676;42.678;23.244;2023-02-23T08:23:23;94009.69;;;8.19;91.52
9277;BME280;4676;42.678;23.244;2023-02-23T08:25:50;94005.88;;;8.33;90.74
9277;BME280;4676;42.678;23.244;2023-02-23T08:28:18;94010.69;;;8.39;89.46
9277;BME280;4676;42.678;23.244;2023-02-23T08:30:44;94015.13;;;8.33;87.92
9277;BME280;4676;42.678;23.244;2023-02-23T08:33:11;94013.94;;;8.43;88.17
9277;BME280;4676;42.678;23.244;2023-02-23T08:35:39;94012.72;;;8.55;87.94
9277;BME280;4676;42.678;23.244;2023-02-23T08:38:06;94013.81;;;8.72;85.63
9277;BME280;4676;42.678;23.244;2023-02-23T08:40:33;94015.66;;;8.90;84.11
9277;BME280;4676;42.678;23.244;2023-02-23T08:42:59;94014.81;;;8.91;84.72
9277;BME280;4676;42.678;23.244;2023-02-23T08:45:26;94010.44;;;8.96;81.99
9277;BME280;4676;42.678;23.244;2023-02-23T08:47:54;94015.97;;;9.06;81.35
9277;BME280;4676;42.678;23.244;2023-02-23T08:50:21;93999.81;;;9.10;80.01
9277;BME280;4676;42.678;23.244;2023-02-23T08:52:49;94016.88;;;9.28;78.72
9277;BME280;4676;42.678;23.244;2023-02-23T08:55:16;94010.78;;;9.32;78.88
9277;BME280;4676;42.678;23.244;2023-02-23T08:57:45;94010.69;;;9.35;77.48
9277;BME280;4676;42.678;23.244;2023-02-23T09:00:13;94013.22;;;9.57;77.98
9277;BME280;4676;42.678;23.244;2023-02-23T09:02:41;94006.97;;;9.67;77.37
9277;BME280;4676;42.678;23.244;2023-02-23T09:05:08;94023.25;;;9.82;74.33
9277;BME280;4676;42.678;23.244;2023-02-23T09:07:36;94007.38;;;10.00;73.36
9277;BME280;4676;42.678;23.244;2023-02-23T09:10:06;94010.78;;;10.21;71.42
9277;BME280;4676;42.678;23.244;2023-02-23T09:12:33;94003.31;;;10.18;70.68
9277;BME280;4676;42.678;23.244;2023-02-23T09:15:00;94007.50;;;10.39;70.51
9277;BME280;4676;42.678;23.244;2023-02-23T09:17:26;94006.78;;;10.37;69.30
9277;BME280;4676;42.678;23.244;2023-02-23T09:19:53;94009.69;;;10.48;70.62
9277;BME280;4676;42.678;23.244;2023-02-23T09:22:20;94009.34;;;10.56;69.26
9277;BME280;4676;42.678;23.244;2023-02-23T09:24:46;93998.84;;;10.65;67.83
9277;BME280;4676;42.678;23.244;2023-02-23T09:27:14;93997.16;;;10.65;67.18
9277;BME280;4676;42.678;23.244;2023-02-23T09:29:41;93995.78;;;10.77;68.65
9277;BME280;4676;42.678;23.244;2023-02-23T09:32:09;94006.50;;;10.83;67.88
9277;BME280;4676;42.678;23.244;2023-02-23T09:34:36;94004.53;;;10.90;67.16
9277;BME280;4676;42.678;23.244;2023-02-23T09:37:03;94011.59;;;11.02;65.88
9277;BME280;4676;42.678;23.244;2023-02-23T09:39:30;94011.47;;;11.05;64.38
9277;BME280;4676;42.678;23.244;2023-02-23T09:42:04;94008.22;;;11.22;64.26
9277;BME280;4676;42.678;23.244;2023-02-23T09:44:50;94012.75;;;11.34;64.66
9277;BME280;4676;42.678;23.244;2023-02-23T09:47:31;94009.44;;;11.50;63.98
9277;BME280;4676;42.678;23.244;2023-02-23T09:50:10;94004.81;;;11.60;63.10
9277;BME280;4676;42.678;23.244;2023-02-23T09:52:41;94006.50;;;11.60;62.76
9277;BME280;4676;42.678;23.244;2023-02-23T09:55:10;94000.41;;;11.82;62.68
9277;BME280;4676;42.678;23.244;2023-02-23T09:57:39;93999.44;;;11.85;63.22
9277;BME280;4676;42.678;23.244;2023-02-23T10:00:17;93996.41;;;11.95;60.33
9277;BME280;4676;42.678;23.244;2023-02-23T10:02:56;93981.31;;;11.92;61.00
9277;BME280;4676;42.678;23.244;2023-02-23T10:05:27;93998.47;;;12.23;60.96
9277;BME280;4676;42.678;23.244;2023-02-23T10:07:59;94005.47;;;12.18;59.57
9277;BME280;4676;42.678;23.244;2023-02-23T10:10:34;93999.72;;;12.15;59.54
9277;BME280;4676;42.678;23.244;2023-02-23T10:13:08;93995.94;;;12.23;59.49
9277;BME280;4676;42.678;23.244;2023-02-23T10:15:43;93993.84;;;12.31;58.83
9277;BME280;4676;42.678;23.244;2023-02-23T10:18:23;93991.00;;;12.37;58.56
9277;BME280;4676;42.678;23.244;2023-02-23T10:20:59;93991.72;;;12.57;58.86
9277;BME280;4676;42.678;23.244;2023-02-23T10:23:30;93978.06;;;12.59;58.07
9277;BME280;4676;42.678;23.244;2023-02-23T10:25:59;93981.03;;;12.67;58.26
9277;BME280;4676;42.678;23.244;2023-02-23T10:28:32;93980.44;;;12.79;57.21
9277;BME280;4676;42.678;23.244;2023-02-23T10:31:01;93967.19;;;12.90;57.11
9277;BME280;4676;42.678;23.244;2023-02-23T10:33:32;93968.03;;;13.06;57.16
9277;BME280;4676;42.678;23.244;2023-02-23T10:36:09;93967.78;;;13.28;56.04
9277;BME280;4676;42.678;23.244;2023-02-23T10:38:38;93966.22;;;13.41;54.98
9277;BME280;4676;42.678;23.244;2023-02-23T10:41:06;93961.75;;;13.13;54.56
9277;BME280;4676;42.678;23.244;2023-02-23T10:43:32;93958.66;;;13.24;54.74
9277;BME280;4676;42.678;23.244;2023-02-23T10:46:01;93950.28;;;13.22;54.23
9277;BME280;4676;42.678;23.244;2023-02-23T10:48:33;93962.59;;;13.45;54.03
9277;BME280;4676;42.678;23.244;2023-02-23T10:51:01;93955.97;;;13.42;53.76
9277;BME280;4676;42.678;23.244;2023-02-23T10:53:31;93952.75;;;13.55;53.66
9277;BME280;4676;42.678;23.244;2023-02-23T10:56:02;93954.31;;;13.73;53.98
9277;BME280;4676;42.678;23.244;2023-02-23T10:58:30;93933.22;;;13.71;52.98
9277;BME280;4676;42.678;23.244;2023-02-23T11:01:06;93941.97;;;13.96;53.19
9277;BME280;4676;42.678;23.244;2023-02-23T11:03:36;93943.41;;;14.16;52.71
9277;BME280;4676;42.678;23.244;2023-02-23T11:06:04;93942.22;;;14.22;52.76
9277;BME280;4676;42.678;23.244;2023-02-23T11:08:32;93934.47;;;13.93;51.90
9277;BME280;4676;42.678;23.244;2023-02-23T11:11:16;93933.56;;;14.10;51.56
9277;BME280;4676;42.678;23.244;2023-02-23T11:13:46;93930.72;;;14.15;51.61
9277;BME280;4676;42.678;23.244;2023-02-23T11:16:16;93918.97;;;14.28;51.51
9277;BME280;4676;42.678;23.244;2023-02-23T11:18:50;93920.59;;;14.59;51.42
9277;BME280;4676;42.678;23.244;2023-02-23T11:21:22;93923.78;;;14.62;49.54
9277;BME280;4676;42.678;23.244;2023-02-23T11:23:51;93915.50;;;14.87;50.69
9277;BME280;4676;42.678;23.244;2023-02-23T11:26:27;93913.22;;;15.11;50.71
9277;BME280;4676;42.678;23.244;2023-02-23T11:28:57;93913.84;;;15.28;49.86
9277;BME280;4676;42.678;23.244;2023-02-23T11:31:30;93913.78;;;15.16;49.11
9277;BME280;4676;42.678;23.244;2023-02-23T11:33:59;93905.72;;;15.22;48.13
9277;BME280;4676;42.678;23.244;2023-02-23T11:36:29;93910.25;;;15.31;48.22
9277;BME280;4676;42.678;23.244;2023-02-23T11:39:05;93903.66;;;15.00;49.49
9277;BME280;4676;42.678;23.244;2023-02-23T11:41:34;93908.22;;;14.67;48.73
9277;BME280;4676;42.678;23.244;2023-02-23T11:44:02;93901.56;;;14.78;49.14
9277;BME280;4676;42.678;23.244;2023-02-23T11:46:33;93901.72;;;14.75;48.87
9277;BME280;4676;42.678;23.244;2023-02-23T11:49:03;93894.34;;;14.85;49.42
9277;BME280;4676;42.678;23.244;2023-02-23T11:51:32;93898.09;;;15.08;48.88
9277;BME280;4676;42.678;23.244;2023-02-23T11:54:01;93896.63;;;15.04;48.34
9277;BME280;4676;42.678;23.244;2023-02-23T11:56:31;93899.63;;;15.10;48.17
9277;BME280;4676;42.678;23.244;2023-02-23T11:59:01;93901.00;;;15.16;48.29
9277;BME280;4676;42.678;23.244;2023-02-23T12:01:37;93887.28;;;15.31;48.27
9277;BME280;4676;42.678;23.244;2023-02-23T12:04:09;93888.84;;;15.33;48.07
9277;BME280;4676;42.678;23.244;2023-02-23T12:06:48;93885.91;;;15.54;47.27
9277;BME280;4676;42.678;23.244;2023-02-23T12:09:18;93887.75;;;15.52;47.54
9277;BME280;4676;42.678;23.244;2023-02-23T12:11:50;93882.72;;;15.50;48.01
9277;BME280;4676;42.678;23.244;2023-02-23T12:14:25;93887.31;;;15.72;47.59
9277;BME280;4676;42.678;23.244;2023-02-23T12:16:58;93873.31;;;15.77;47.42
9277;BME280;4676;42.678;23.244;2023-02-23T12:19:30;93885.47;;;15.74;47.11
9277;BME280;4676;42.678;23.244;2023-02-23T12:22:03;93879.59;;;15.59;47.63
9277;BME280;4676;42.678;23.244;2023-02-23T12:24:39;93882.00;;;15.34;47.76
9277;BME280;4676;42.678;23.244;2023-02-23T12:27:11;93878.16;;;15.41;47.46
9277;BME280;4676;42.678;23.244;2023-02-23T12:29:48;93875.78;;;15.38;47.15
9277;BME280;4676;42.678;23.244;2023-02-23T12:32:23;93868.69;;;15.29;47.17
9277;BME280;4676;42.678;23.244;2023-02-23T12:34:54;93863.84;;;15.38;47.53
9277;BME280;4676;42.678;23.244;2023-02-23T12:37:33;93868.09;;;15.52;48.19
9277;BME280;4676;42.678;23.244;2023-02-23T12:40:14;93873.72;;;15.71;47.92
9277;BME280;4676;42.678;23.244;2023-02-23T12:42:48;93873.94;;;15.81;47.10
9277;BME280;4676;42.678;23.244;2023-02-23T12:45:20;93870.28;;;15.85;45.91
9277;BME280;4676;42.678;23.244;2023-02-23T12:47:58;93865.38;;;15.94;47.00
9277;BME280;4676;42.678;23.244;2023-02-23T12:50:30;93863.16;;;15.90;46.03
9277;BME280;4676;42.678;23.244;2023-02-23T12:53:03;93857.97;;;16.04;47.26
9277;BME280;4676;42.678;23.244;2023-02-23T12:55:38;93857.41;;;15.86;45.32
9277;BME280;4676;42.678;23.244;2023-02-23T12:58:19;93846.09;;;15.64;45.84
9277;BME280;4676;42.678;23.244;2023-02-23T13:00:54;93846.75;;;15.80;46.61
9277;BME280;4676;42.678;23.244;2023-02-23T13:03:44;93858.53;;;15.82;46.22
9277;BME280;4676;42.678;23.244;2023-02-23T13:06:24;93861.44;;;15.76;45.88
9277;BME280;4676;42.678;23.244;2023-02-23T13:09:06;93859.56;;;15.66;45.52
9277;BME280;4676;42.678;23.244;2023-02-23T13:11:45;93862.75;;;15.69;46.59
9277;BME280;4676;42.678;23.244;2023-02-23T13:14:19;93859.84;;;15.75;46.03
9277;BME280;4676;42.678;23.244;2023-02-23T13:16:49;93859.03;;;15.87;45.90
9277;BME280;4676;42.678;23.244;2023-02-23T13:19:22;93853.00;;;15.88;47.18
9277;BME280;4676;42.678;23.244;2023-02-23T13:21:58;93852.03;;;16.04;46.77
9277;BME280;4676;42.678;23.244;2023-02-23T13:24:34;93852.16;;;16.15;46.21
9277;BME280;4676;42.678;23.244;2023-02-23T13:27:06;93852.03;;;16.16;46.94
9277;BME280;4676;42.678;23.244;2023-02-23T13:29:41;93850.41;;;16.15;45.32
9277;BME280;4676;42.678;23.244;2023-02-23T13:32:10;93852.16;;;16.15;46.81
9277;BME280;4676;42.678;23.244;2023-02-23T13:34:42;93847.66;;;16.18;46.05
9277;BME280;4676;42.678;23.244;2023-02-23T13:37:12;93850.31;;;16.04;46.25
9277;BME280;4676;42.678;23.244;2023-02-23T13:39:50;93856.22;;;16.05;47.78
9277;BME280;4676;42.678;23.244;2023-02-23T13:42:44;93850.59;;;16.12;47.88
9277;BME280;4676;42.678;23.244;2023-02-23T13:45:29;93848.03;;;16.12;48.10